Terminal Aerodrome Forecast
Issued by NWS Charleston, SC

Home | Current Version | Previous Version | Text Only | Print | Product List | Glossary On
Versions: 1 2 3 4 5 6 7 8 9 10 11 12 13 14 15 16 17
817
FTUS42 KCHS 170522
TAFCHS
TAF
KCHS 170522Z 1706/1806 24004KT P6SM SCT050
     FM171930 19008KT P6SM VCTS SCT040CB BKN150
     FM180000 20006KT P6SM SCT040=

USA.gov is the U.S. government's official web portal to all federal, state and local government web resources and services.